Time;durP1;ratioP1;P1;durP2;ratioP2;P2;SDS_P1;SDS_P2;PMS_P1;PMS_P2;Temp;Humidity;BMP_temperature;BMP_pressure;BME280_temperature;BME280_humidity;BME280_pressure;Samples;Min_cycle;Max_cycle;Signal;HPM_P1;HPM_P2
2023/06/01 00:00:09;;;;;;;15.55;9.13;;;;;;;12.87;72.22;101613.81;843897;23;1337;-80
2023/06/01 00:00:31;;;;;;;15.10;9.35;;;;;;;12.86;72.40;101619.88;841192;23;838;-80
2023/06/01 00:00:55;;;;;;;16.17;9.50;;;;;;;12.90;72.19;101623.47;844700;23;1057;-79
2023/06/01 00:01:16;;;;;;;16.58;9.73;;;;;;;12.86;72.33;101629.47;847359;23;1185;-81
2023/06/01 00:01:37;;;;;;;14.25;9.70;;;;;;;12.86;72.36;101627.72;839788;23;1386;-81
2023/06/01 00:01:59;;;;;;;13.05;9.30;;;;;;;12.90;72.49;101633.97;837225;23;1205;-81
2023/06/01 00:02:19;;;;;;;13.20;9.20;;;;;;;12.86;72.47;101632.97;843852;23;1188;-81
2023/06/01 00:02:41;;;;;;;14.27;9.33;;;;;;;12.86;72.69;101632.97;843666;23;1368;-80
2023/06/01 00:03:01;;;;;;;13.90;9.20;;;;;;;12.81;72.48;101623.19;838856;23;1241;-81
2023/06/01 00:03:23;;;;;;;14.20;9.43;;;;;;;12.82;72.81;101624.97;839114;23;1356;-80
2023/06/01 00:03:44;;;;;;;13.73;9.35;;;;;;;12.85;72.77;101631.19;841135;23;930;-80
2023/06/01 00:04:05;;;;;;;15.00;9.38;;;;;;;12.85;72.97;101627.69;843651;23;1104;-80
2023/06/01 00:04:26;;;;;;;15.15;9.07;;;;;;;12.81;73.00;101626.72;845378;23;913;-80
2023/06/01 00:04:48;;;;;;;14.95;8.85;;;;;;;12.78;72.63;101623.09;849198;23;992;-80
2023/06/01 00:05:09;;;;;;;15.55;9.30;;;;;;;12.80;72.86;101630.19;838625;23;1218;-77
2023/06/01 00:05:29;;;;;;;15.48;9.38;;;;;;;12.79;73.10;101630.13;843047;23;1254;-78
2023/06/01 00:05:51;;;;;;;14.93;9.65;;;;;;;12.75;72.92;101629.13;839405;23;1167;-77
2023/06/01 00:06:11;;;;;;;15.73;9.55;;;;;;;12.73;73.06;101626.44;837199;23;1107;-77
2023/06/01 00:06:32;;;;;;;15.00;9.30;;;;;;;12.74;72.97;101629.97;835666;23;1099;-78
2023/06/01 00:06:52;;;;;;;15.60;9.23;;;;;;;12.66;73.00;101619.22;838743;23;1134;-78
2023/06/01 00:07:13;;;;;;;13.27;9.15;;;;;;;12.69;73.21;101623.69;839793;23;1201;-77
2023/06/01 00:07:34;;;;;;;12.90;9.23;;;;;;;12.70;73.03;101622.84;841286;23;779;-77
2023/06/01 00:07:55;;;;;;;12.85;9.35;;;;;;;12.69;73.19;101628.91;839293;23;1212;-77
2023/06/01 00:08:16;;;;;;;14.45;9.50;;;;;;;12.69;73.23;101626.28;841212;23;1053;-80
2023/06/01 00:08:36;;;;;;;15.50;9.37;;;;;;;12.66;73.02;101628.81;843601;23;1137;-79
2023/06/01 00:08:57;;;;;;;16.02;9.05;;;;;;;12.68;73.19;101627.13;839094;23;1161;-78
2023/06/01 00:09:18;;;;;;;16.08;9.20;;;;;;;12.66;73.12;101629.69;841012;23;956;-79
2023/06/01 00:09:39;;;;;;;15.47;9.50;;;;;;;12.58;73.02;101621.59;835653;23;1130;-78
2023/06/01 00:10:00;;;;;;;13.90;9.35;;;;;;;12.65;73.26;101624.44;836900;23;946;-78
2023/06/01 00:10:20;;;;;;;14.18;9.30;;;;;;;12.64;73.30;101627.91;837274;23;1092;-78
2023/06/01 00:10:41;;;;;;;16.35;9.68;;;;;;;12.65;73.28;101630.53;837229;23;942;-78
2023/06/01 00:11:02;;;;;;;16.52;9.90;;;;;;;12.67;73.42;101630.59;839655;23;1142;-79
2023/06/01 00:11:23;;;;;;;15.20;9.80;;;;;;;12.65;73.29;101634.91;838997;23;1027;-78
2023/06/01 00:11:44;;;;;;;13.50;9.20;;;;;;;12.54;73.23;101617.09;839013;23;1083;-78
2023/06/01 00:12:06;;;;;;;13.20;9.00;;;;;;;12.64;73.24;101641.00;835590;23;1221;-78
2023/06/01 00:12:27;;;;;;;12.73;9.00;;;;;;;12.56;73.24;101623.28;843816;23;1160;-78
2023/06/01 00:12:47;;;;;;;13.40;9.30;;;;;;;12.57;73.40;101624.16;845051;23;985;-79
2023/06/01 00:13:08;;;;;;;14.65;9.52;;;;;;;12.58;73.73;101629.47;845329;23;1043;-78
2023/06/01 00:13:28;;;;;;;14.20;9.63;;;;;;;12.57;73.64;101625.06;839901;23;1042;-78
2023/06/01 00:13:50;;;;;;;13.10;9.57;;;;;;;12.60;73.38;101635.63;835646;23;1059;-79
2023/06/01 00:14:11;;;;;;;14.50;9.65;;;;;;;12.55;73.71;101626.72;839761;23;1389;-78
2023/06/01 00:14:31;;;;;;;14.75;9.50;;;;;;;12.55;73.71;101631.94;835889;23;1903;-79
2023/06/01 00:14:52;;;;;;;16.33;9.43;;;;;;;12.57;73.86;101627.69;839368;23;1210;-78
2023/06/01 00:15:13;;;;;;;14.95;9.45;;;;;;;12.49;73.80;101618.69;842844;23;1156;-78
2023/06/01 00:15:35;;;;;;;16.50;9.63;;;;;;;12.55;73.89;101636.31;845311;23;718;-78
2023/06/01 00:15:56;;;;;;;15.60;9.52;;;;;;;12.54;73.81;101630.19;847425;23;1127;-79
2023/06/01 00:16:17;;;;;;;16.17;9.80;;;;;;;12.49;73.62;101623.91;849343;23;1108;-78
2023/06/01 00:16:38;;;;;;;15.07;9.75;;;;;;;12.53;73.67;101638.00;843647;23;1115;-78
2023/06/01 00:16:58;;;;;;;16.50;10.10;;;;;;;12.52;73.87;101626.63;844471;23;1005;-78
2023/06/01 00:17:19;;;;;;;16.75;10.00;;;;;;;12.42;73.85;101622.78;839793;23;1032;-78
2023/06/01 00:17:40;;;;;;;16.25;9.80;;;;;;;12.52;74.06;101637.09;843755;23;1179;-79
2023/06/01 00:18:01;;;;;;;14.38;9.50;;;;;;;12.45;74.08;101630.78;845108;23;1008;-79
2023/06/01 00:18:21;;;;;;;13.60;9.30;;;;;;;12.48;74.13;101627.38;841124;23;1150;-78
2023/06/01 00:18:42;;;;;;;15.73;9.60;;;;;;;12.43;74.01;101624.56;838445;23;1119;-78
2023/06/01 00:19:03;;;;;;;15.75;9.70;;;;;;;12.42;74.11;101628.03;844982;23;1097;-77
2023/06/01 00:19:25;;;;;;;15.85;10.10;;;;;;;12.42;74.31;101632.41;842848;23;1241;-78
2023/06/01 00:19:47;;;;;;;15.15;10.30;;;;;;;12.41;74.07;101625.38;843739;23;1341;-78
2023/06/01 00:20:08;;;;;;;16.80;10.25;;;;;;;12.38;74.04;101623.53;845238;23;945;-78
2023/06/01 00:20:31;;;;;;;17.33;10.30;;;;;;;12.34;73.95;101622.56;841425;23;862;-78
2023/06/01 00:20:53;;;;;;;14.80;10.05;;;;;;;12.34;74.23;101621.66;843459;23;1224;-78
2023/06/01 00:21:14;;;;;;;14.25;9.80;;;;;;;12.35;74.08;101620.81;841319;23;1068;-78
2023/06/01 00:21:35;;;;;;;12.73;9.57;;;;;;;12.34;74.27;101622.56;835897;23;1043;-79
2023/06/01 00:21:57;;;;;;;13.82;9.95;;;;;;;12.33;74.07;101625.09;840843;23;1151;-78
2023/06/01 00:22:18;;;;;;;14.30;9.90;;;;;;;12.32;74.19;101623.34;841234;23;962;-80
2023/06/01 00:22:39;;;;;;;14.98;10.25;;;;;;;12.36;74.18;101626.94;843732;23;1539;-80
2023/06/01 00:22:59;;;;;;;12.48;9.63;;;;;;;12.30;74.19;101619.78;845040;23;909;-77
2023/06/01 00:23:21;;;;;;;12.52;9.80;;;;;;;12.37;74.11;101639.19;835833;23;1158;-77
2023/06/01 00:23:42;;;;;;;13.45;10.02;;;;;;;12.31;74.36;101632.91;835569;23;1170;-78
2023/06/01 00:24:03;;;;;;;15.43;10.68;;;;;;;12.33;74.44;101628.63;836944;23;1118;-78
2023/06/01 00:24:25;;;;;;;15.30;10.55;;;;;;;12.29;74.58;101624.09;842821;23;1365;-79
2023/06/01 00:24:46;;;;;;;14.98;10.60;;;;;;;12.31;74.63;101632.91;843122;23;1196;-78
2023/06/01 00:25:08;;;;;;;14.30;10.63;;;;;;;12.31;74.59;101630.28;839556;23;1091;-78
2023/06/01 00:25:28;;;;;;;15.80;10.80;;;;;;;12.27;74.50;101628.41;845366;23;807;-78
2023/06/01 00:25:49;;;;;;;16.45;10.80;;;;;;;12.26;74.63;101621.41;844872;23;1063;-77
2023/06/01 00:26:10;;;;;;;16.67;10.67;;;;;;;12.30;74.83;101631.13;839693;23;1121;-78
2023/06/01 00:26:33;;;;;;;15.85;10.32;;;;;;;12.28;74.85;101632.81;835790;23;1579;-78
2023/06/01 00:26:53;;;;;;;15.07;10.13;;;;;;;12.24;74.84;101624.78;842715;23;1031;-79
2023/06/01 00:27:14;;;;;;;14.70;10.40;;;;;;;12.20;74.62;101618.56;842366;23;1067;-79
2023/06/01 00:27:35;;;;;;;16.37;10.90;;;;;;;12.23;74.87;101623.00;843896;23;1216;-79
2023/06/01 00:27:56;;;;;;;18.13;11.00;;;;;;;12.20;74.82;101624.69;842291;23;1032;-79
2023/06/01 00:28:17;;;;;;;17.38;10.75;;;;;;;12.26;74.91;101628.34;843803;23;1261;-79
2023/06/01 00:28:38;;;;;;;17.43;10.73;;;;;;;12.23;74.83;101631.75;841252;23;1063;-79
2023/06/01 00:28:59;;;;;;;18.02;10.75;;;;;;;12.27;75.14;101636.25;845114;23;871;-79
2023/06/01 00:29:21;;;;;;;18.17;11.13;;;;;;;12.25;75.25;101632.72;843864;23;1170;-80
2023/06/01 00:29:42;;;;;;;17.65;10.90;;;;;;;12.15;75.14;101620.13;842317;23;1141;-78
2023/06/01 00:30:03;;;;;;;18.60;11.30;;;;;;;12.18;75.13;101623.72;839390;23;1236;-78
2023/06/01 00:30:23;;;;;;;19.75;11.13;;;;;;;12.14;74.96;101621.84;835881;23;1025;-79
2023/06/01 00:30:44;;;;;;;19.60;11.13;;;;;;;12.24;75.06;101635.25;838426;23;1370;-78
2023/06/01 00:31:05;;;;;;;18.17;10.60;;;;;;;12.15;75.37;101615.78;843608;23;1411;-79
2023/06/01 00:31:26;;;;;;;19.25;10.82;;;;;;;12.22;75.04;101632.59;845145;23;733;-79
2023/06/01 00:31:48;;;;;;;20.08;11.00;;;;;;;12.21;75.06;101628.19;843489;23;1110;-78
2023/06/01 00:32:09;;;;;;;20.95;11.27;;;;;;;12.14;75.14;101614.00;837052;23;969;-79
2023/06/01 00:32:30;;;;;;;19.08;10.90;;;;;;;12.19;75.28;101629.88;839816;23;1253;-79
2023/06/01 00:32:50;;;;;;;17.63;10.73;;;;;;;12.21;75.05;101630.81;843472;23;1037;-79
2023/06/01 00:33:11;;;;;;;17.90;11.07;;;;;;;12.16;75.20;101619.31;843417;23;1150;-79
2023/06/01 00:33:32;;;;;;;18.60;11.30;;;;;;;12.13;75.29;101620.09;841278;23;716;-79
2023/06/01 00:33:52;;;;;;;19.30;11.63;;;;;;;12.18;75.49;101626.34;843400;23;1155;-79
2023/06/01 00:34:13;;;;;;;17.95;11.27;;;;;;;12.12;75.47;101617.41;839250;23;1169;-79
2023/06/01 00:34:34;;;;;;;16.40;11.30;;;;;;;12.17;75.29;101626.31;843723;23;1898;-78
2023/06/01 00:34:55;;;;;;;14.73;10.90;;;;;;;12.12;75.44;101622.63;844833;23;1049;-79
2023/06/01 00:35:15;;;;;;;15.00;11.00;;;;;;;12.13;75.74;101621.78;845041;23;1080;-79
2023/06/01 00:35:36;;;;;;;16.10;10.90;;;;;;;12.11;75.57;101623.47;841257;23;990;-80
2023/06/01 00:35:57;;;;;;;16.70;11.03;;;;;;;12.06;75.61;101618.97;843507;23;1223;-79
2023/06/01 00:36:18;;;;;;;16.77;10.75;;;;;;;12.04;75.49;101618.03;840998;23;1071;-79
2023/06/01 00:36:39;;;;;;;16.85;10.70;;;;;;;12.07;75.46;101614.63;845086;23;1057;-79
2023/06/01 00:36:59;;;;;;;17.35;11.10;;;;;;;12.07;75.37;101623.34;846341;23;1419;-79
2023/06/01 00:37:20;;;;;;;17.17;11.40;;;;;;;12.05;75.46;101611.94;845337;23;1012;-79
2023/06/01 00:37:41;;;;;;;18.13;11.90;;;;;;;12.04;75.46;101618.03;839754;23;1235;-79
2023/06/01 00:38:01;;;;;;;16.77;11.32;;;;;;;12.05;75.69;101625.03;841102;23;936;-79
2023/06/01 00:38:22;;;;;;;17.48;11.60;;;;;;;12.09;75.42;101625.16;845325;23;898;-79
2023/06/01 00:38:43;;;;;;;18.27;11.68;;;;;;;12.04;75.64;101623.25;847293;23;1171;-80
2023/06/01 00:39:04;;;;;;;19.10;12.30;;;;;;;12.09;75.51;101630.38;841010;23;1009;-79
2023/06/01 00:39:25;;;;;;;18.67;11.95;;;;;;;11.99;75.63;101611.72;843867;23;1277;-79
2023/06/01 00:39:46;;;;;;;16.95;11.50;;;;;;;12.03;75.58;101616.25;850142;23;1463;-78
2023/06/01 00:40:08;;;;;;;17.25;11.20;;;;;;;12.07;75.80;101620.72;841075;23;982;-80
2023/06/01 00:40:29;;;;;;;19.52;11.40;;;;;;;12.04;75.51;101607.56;845250;23;680;-79
2023/06/01 00:40:50;;;;;;;22.50;12.10;;;;;;;12.11;75.56;101626.97;843455;23;1170;-79
2023/06/01 00:41:12;;;;;;;23.17;12.38;;;;;;;12.14;75.63;101620.97;849365;23;1064;-79
2023/06/01 00:41:33;;;;;;;20.50;12.10;;;;;;;12.12;75.50;101623.53;849405;23;827;-79
2023/06/01 00:41:54;;;;;;;19.25;11.70;;;;;;;12.14;75.46;101620.97;839398;23;1185;-80
2023/06/01 00:42:15;;;;;;;17.02;11.52;;;;;;;12.07;75.56;101612.88;841041;23;941;-79
2023/06/01 00:42:35;;;;;;;16.63;11.40;;;;;;;12.11;75.72;101615.63;835810;23;1376;-80
2023/06/01 00:42:56;;;;;;;16.40;11.33;;;;;;;12.06;75.64;101611.09;840923;23;867;-79
2023/06/01 00:43:18;;;;;;;16.98;11.40;;;;;;;12.06;75.78;101616.34;838399;23;1056;-80
2023/06/01 00:43:38;;;;;;;16.27;11.10;;;;;;;11.98;75.62;101609.06;840922;23;1054;-79
2023/06/01 00:44:00;;;;;;;16.52;11.15;;;;;;;11.97;75.97;101613.41;847164;23;1151;-81
2023/06/01 00:44:21;;;;;;;16.70;10.88;;;;;;;12.00;75.81;101618.75;843659;23;1253;-79
2023/06/01 00:44:41;;;;;;;18.13;11.40;;;;;;;11.99;76.17;101614.34;843557;23;1104;-79
2023/06/01 00:45:03;;;;;;;17.58;11.38;;;;;;;11.99;75.91;101616.94;843705;23;1368;-80
2023/06/01 00:45:23;;;;;;;16.67;11.40;;;;;;;11.91;76.10;101611.47;847390;23;1085;-80
2023/06/01 00:45:44;;;;;;;17.30;11.40;;;;;;;11.99;76.12;101619.56;849191;23;938;-79
2023/06/01 00:46:05;;;;;;;17.90;11.18;;;;;;;11.94;75.96;101613.31;845118;23;989;-79
2023/06/01 00:46:29;;;;;;;17.80;11.45;;;;;;;11.98;76.12;101628.25;839712;23;1146;-78
2023/06/01 00:46:50;;;;;;;17.85;11.15;;;;;;;11.91;76.37;101615.78;836393;23;980;-80
2023/06/01 00:47:11;;;;;;;18.33;11.70;;;;;;;11.89;76.16;101614.84;839763;23;1198;-79
2023/06/01 00:47:40;;;;;;;16.77;11.55;;;;;;;11.91;76.30;101611.47;839831;23;1329;-78
2023/06/01 00:48:01;;;;;;;18.55;12.00;;;;;;;11.90;76.20;101616.63;837141;23;1060;-79
2023/06/01 00:48:23;;;;;;;18.00;11.70;;;;;;;11.87;76.47;101608.69;837268;23;1164;-79
2023/06/01 00:48:44;;;;;;;18.15;12.00;;;;;;;11.93;76.28;101614.16;835141;23;1209;-79
2023/06/01 00:49:05;;;;;;;17.38;11.80;;;;;;;11.97;76.34;101621.25;840837;23;1079;-79
2023/06/01 00:49:26;;;;;;;16.80;11.88;;;;;;;11.91;76.22;101618.41;841224;23;923;-79
2023/06/01 00:49:47;;;;;;;17.75;11.85;;;;;;;11.94;76.15;101615.91;838952;23;1369;-79
2023/06/01 00:50:10;;;;;;;18.70;12.10;;;;;;;11.93;76.17;101619.38;835643;23;1121;-79
2023/06/01 00:50:31;;;;;;;19.00;11.70;;;;;;;11.92;76.48;101622.78;838308;23;827;-79
2023/06/01 00:50:51;;;;;;;20.35;11.57;;;;;;;11.88;76.37;101615.69;840636;23;1170;-79
2023/06/01 00:51:14;;;;;;;20.70;12.00;;;;;;;11.92;76.27;101614.94;846940;23;1133;-79
2023/06/01 00:51:35;;;;;;;19.67;12.30;;;;;;;11.90;76.20;101619.25;843752;23;1330;-79
2023/06/01 00:51:56;;;;;;;16.93;12.20;;;;;;;11.85;76.31;101602.50;835505;23;1052;-79
2023/06/01 00:52:18;;;;;;;15.55;11.70;;;;;;;11.89;76.44;101612.22;835233;23;1217;-79
2023/06/01 00:52:40;;;;;;;16.23;11.50;;;;;;;11.88;76.32;101610.47;837091;23;1001;-79
2023/06/01 00:53:05;;;;;;;16.55;11.50;;;;;;;11.88;76.45;101610.47;841022;23;967;-78
2023/06/01 00:53:26;;;;;;;18.27;11.80;;;;;;;11.90;76.34;101608.78;837236;23;846;-78
2023/06/01 00:53:47;;;;;;;18.13;11.90;;;;;;;11.92;75.99;101608.00;835210;23;1173;-80
2023/06/01 00:54:08;;;;;;;19.65;12.25;;;;;;;11.92;76.08;101609.72;839646;23;1317;-79
2023/06/01 00:54:29;;;;;;;18.70;12.48;;;;;;;11.85;75.95;101605.13;841161;23;1956;-78
2023/06/01 00:54:50;;;;;;;17.88;12.13;;;;;;;11.92;76.03;101614.94;836901;23;1087;-78
2023/06/01 00:55:11;;;;;;;16.43;11.63;;;;;;;11.90;75.99;101608.78;845367;23;980;-81
2023/06/01 00:55:33;;;;;;;16.48;11.63;;;;;;;11.89;75.98;101612.22;849390;23;810;-79
2023/06/01 00:55:54;;;;;;;17.35;11.70;;;;;;;11.86;76.10;101601.69;845060;23;949;-78
2023/06/01 00:56:17;;;;;;;18.48;11.98;;;;;;;11.84;76.23;101603.31;837248;23;1059;-79
2023/06/01 00:56:38;;;;;;;19.70;12.07;;;;;;;11.86;76.38;101601.69;837202;23;953;-78
2023/06/01 00:57:00;;;;;;;18.90;12.05;;;;;;;11.88;76.29;101619.22;835085;23;1165;-79
2023/06/01 00:57:26;;;;;;;17.75;11.52;;;;;;;11.88;76.24;101615.69;843851;23;1384;-79
2023/06/01 00:57:49;;;;;;;15.38;10.60;;;;;;;11.87;76.21;101606.94;839024;23;1560;-79
2023/06/01 00:58:15;;;;;;;18.17;11.40;;;;;;;11.83;76.44;101599.84;843683;23;1176;-79
2023/06/01 00:58:35;;;;;;;18.75;11.63;;;;;;;11.83;76.39;101606.78;840884;23;1047;-79
2023/06/01 00:58:56;;;;;;;18.30;11.50;;;;;;;11.83;76.27;101598.94;838869;23;1274;-79
2023/06/01 00:59:17;;;;;;;17.30;11.88;;;;;;;11.82;76.37;101599.78;843127;23;1228;-79
2023/06/01 00:59:38;;;;;;;16.80;11.88;;;;;;;11.84;76.31;101604.22;843614;23;1358;-79
2023/06/01 00:59:59;;;;;;;18.75;12.30;;;;;;;11.82;76.36;101605.00;841011;23;1192;-80
2023/06/01 01:00:20;;;;;;;18.05;11.90;;;;;;;11.83;76.26;101599.84;839618;23;1117;-79
2023/06/01 01:00:41;;;;;;;18.85;12.10;;;;;;;11.83;76.34;101602.44;840880;23;1064;-80
2023/06/01 01:01:02;;;;;;;16.98;11.30;;;;;;;11.86;76.21;101613.00;840836;23;1099;-78
2023/06/01 01:01:24;;;;;;;18.40;11.63;;;;;;;11.86;76.12;101612.13;839756;23;1197;-79
2023/06/01 01:01:45;;;;;;;18.15;11.95;;;;;;;11.84;76.24;101611.16;834493;23;1352;-79
2023/06/01 01:02:08;;;;;;;18.50;12.02;;;;;;;11.81;76.28;101611.06;839645;23;1149;-80
2023/06/01 01:02:31;;;;;;;17.40;11.50;;;;;;;11.78;76.30;101602.28;835846;23;1381;-79
2023/06/01 01:02:53;;;;;;;16.70;11.40;;;;;;;11.77;76.36;101603.13;843473;23;1463;-79
2023/06/01 01:03:15;;;;;;;18.30;12.00;;;;;;;11.84;76.14;101624.25;845192;23;964;-80
2023/06/01 01:03:38;;;;;;;18.05;12.00;;;;;;;11.74;76.39;101603.00;841192;23;1028;-77
2023/06/01 01:04:00;;;;;;;17.65;11.80;;;;;;;11.72;76.46;101591.59;841118;23;890;-79
2023/06/01 01:04:25;;;;;;;17.88;11.70;;;;;;;11.78;76.32;101614.47;839729;23;1454;-79
2023/06/01 01:04:52;;;;;;;17.77;11.60;;;;;;;11.82;76.14;101620.69;836999;23;1059;-79
2023/06/01 01:05:14;;;;;;;17.10;11.60;;;;;;;11.73;76.42;101601.22;837145;23;964;-79
2023/06/01 01:05:36;;;;;;;16.98;11.70;;;;;;;11.72;76.19;101606.38;835846;23;1314;-78
2023/06/01 01:06:22;;;;;;;17.17;11.45;;;;;;;11.76;76.13;101608.28;835610;23;1387;-79
2023/06/01 01:06:49;;;;;;;18.38;11.75;;;;;;;11.77;76.36;101621.44;836910;23;1083;-79
2023/06/01 01:07:26;;;;;;;16.10;11.23;;;;;;;11.71;76.19;101613.34;835597;23;1172;-78
2023/06/01 01:08:06;;;;;;;16.27;11.40;;;;;;;11.66;76.41;101604.44;841803;23;1018;-79
2023/06/01 01:08:37;;;;;;;17.13;12.07;;;;;;;11.64;76.52;101606.09;843792;23;1175;-79
2023/06/01 01:09:23;;;;;;;18.50;12.07;;;;;;;11.75;76.06;101614.34;841087;23;905;-79
2023/06/01 01:10:00;;;;;;;18.08;12.85;;;;;;;11.72;75.91;101614.22;838418;23;1089;-79
2023/06/01 01:10:41;;;;;;;19.50;12.20;;;;;;;11.71;76.00;101615.97;839774;23;1919;-79
2023/06/01 01:11:17;;;;;;;18.45;11.77;;;;;;;11.66;75.94;101599.22;838715;23;1122;-78
2023/06/01 01:11:42;;;;;;;20.10;12.38;;;;;;;11.65;75.79;101603.56;835793;23;981;-78
2023/06/01 01:12:18;;;;;;;22.23;12.90;;;;;;;11.72;75.87;101622.97;840975;23;1109;-80
2023/06/01 01:12:53;;;;;;;22.25;12.85;;;;;;;11.69;75.91;101615.03;843166;23;1099;-78
2023/06/01 01:13:21;;;;;;;19.67;12.68;;;;;;;11.70;76.00;101618.50;841183;23;865;-80
2023/06/01 01:13:52;;;;;;;20.60;12.30;;;;;;;11.64;76.15;101617.44;841023;23;1078;-79
2023/06/01 01:14:49;;;;;;;19.75;12.10;;;;;;;11.63;75.80;101612.16;837234;23;947;-78
2023/06/01 01:15:25;;;;;;;18.67;12.40;;;;;;;11.55;76.09;101608.34;835610;23;1064;-79
2023/06/01 01:16:02;;;;;;;18.52;12.75;;;;;;;11.63;76.01;101614.75;840933;23;969;-79
2023/06/01 01:16:30;;;;;;;18.10;12.32;;;;;;;11.64;76.05;101627.00;842532;23;1072;-79
2023/06/01 01:16:55;;;;;;;18.02;12.20;;;;;;;11.59;75.95;101618.09;842714;23;1204;-79
2023/06/01 01:17:30;;;;;;;19.50;12.10;;;;;;;11.62;75.83;101623.44;839229;23;1121;-78
2023/06/01 01:17:57;;;;;;;19.98;11.60;;;;;;;11.55;76.19;101616.19;843627;23;1126;-79
2023/06/01 01:18:33;;;;;;;19.88;11.90;;;;;;;11.59;76.04;101618.97;847986;23;1000;-79
2023/06/01 01:19:24;;;;;;;18.15;12.20;;;;;;;11.56;76.07;101623.22;840868;23;1024;-79
2023/06/01 01:20:10;;;;;;;19.17;12.20;;;;;;;11.51;76.42;101621.28;840329;23;1072;-79
2023/06/01 01:20:38;;;;;;;18.48;11.90;;;;;;;11.44;76.39;101613.19;841496;23;833;-78
2023/06/01 01:21:03;;;;;;;20.73;12.45;;;;;;;11.43;76.28;101624.47;834945;23;962;-79
2023/06/01 01:21:35;;;;;;;21.60;12.70;;;;;;;11.34;76.55;101618.06;839993;23;938;-79
2023/06/01 01:22:20;;;;;;;19.52;12.27;;;;;;;11.22;77.03;101618.47;843797;23;1326;-79
2023/06/01 01:23:09;;;;;;;20.55;12.57;;;;;;;11.22;77.13;101617.56;849457;23;1077;-79
2023/06/01 01:23:58;;;;;;;21.08;12.45;;;;;;;11.33;77.09;101628.44;845536;23;810;-79
2023/06/01 01:24:37;;;;;;;18.02;13.13;;;;;;;11.35;77.02;101632.00;853554;23;973;-79
2023/06/01 01:25:20;;;;;;;19.38;12.52;;;;;;;11.34;77.01;101630.22;847882;23;1168;-78
2023/06/01 01:26:27;;;;;;;22.00;12.65;;;;;;;11.33;77.21;101628.44;845308;23;978;-78
2023/06/01 01:27:15;;;;;;;17.17;12.55;;;;;;;11.26;77.26;101639.47;839789;23;1207;-78
2023/06/01 01:27:44;;;;;;;18.17;12.50;;;;;;;11.27;77.31;101636.03;843820;23;1088;-78
2023/06/01 01:28:26;;;;;;;18.77;12.90;;;;;;;11.28;77.34;101632.59;839660;23;1374;-79
2023/06/01 01:28:50;;;;;;;17.88;12.23;;;;;;;11.26;77.31;101629.03;841061;23;1475;-80
2023/06/01 01:29:15;;;;;;;17.17;11.82;;;;;;;11.24;77.46;101627.25;843901;23;1117;-79
2023/06/01 01:29:38;;;;;;;18.13;11.90;;;;;;;11.25;77.30;101633.38;845437;23;980;-79
2023/06/01 01:30:05;;;;;;;19.30;12.50;;;;;;;11.21;77.60;101632.38;839466;23;1308;-79
2023/06/01 01:30:28;;;;;;;19.42;12.68;;;;;;;11.22;77.21;101626.31;841582;23;819;-79
2023/06/01 01:30:52;;;;;;;18.90;12.10;;;;;;;11.18;77.55;101626.13;841194;23;1001;-78
2023/06/01 01:31:17;;;;;;;18.77;12.60;;;;;;;11.20;77.55;101625.34;836017;23;1452;-80
2023/06/01 01:31:39;;;;;;;18.60;13.10;;;;;;;11.20;77.55;101627.94;839905;23;1449;-79
2023/06/01 01:32:04;;;;;;;19.13;12.90;;;;;;;11.21;77.45;101627.16;834989;23;1181;-80
2023/06/01 01:32:26;;;;;;;21.17;13.07;;;;;;;11.11;77.54;101614.53;840079;23;779;-80
2023/06/01 01:32:50;;;;;;;22.15;12.77;;;;;;;11.16;78.10;101626.06;841062;23;913;-79
2023/06/01 01:33:12;;;;;;;21.10;12.98;;;;;;;11.13;77.64;101628.56;839982;23;1260;-78
2023/06/01 01:33:33;;;;;;;18.55;12.32;;;;;;;11.06;77.91;101606.53;837329;23;795;-79
2023/06/01 01:33:56;;;;;;;18.67;12.32;;;;;;;11.14;77.92;101619.91;835603;23;1265;-80
2023/06/01 01:34:20;;;;;;;19.63;12.35;;;;;;;11.03;77.95;101609.03;835070;23;1155;-80
2023/06/01 01:34:45;;;;;;;21.02;13.20;;;;;;;11.07;77.91;101612.66;839103;23;1910;-81
2023/06/01 01:35:08;;;;;;;22.42;13.30;;;;;;;11.10;78.12;101618.88;835838;23;1248;-79
2023/06/01 01:35:31;;;;;;;21.63;12.45;;;;;;;11.11;77.85;101624.97;834855;23;1155;-79
2023/06/01 01:35:53;;;;;;;20.05;12.75;;;;;;;11.05;77.99;101609.09;839468;23;1292;-78
2023/06/01 01:36:15;;;;;;;19.80;12.70;;;;;;;11.07;77.96;101618.75;847133;23;1251;-79
2023/06/01 01:36:36;;;;;;;18.48;12.57;;;;;;;11.06;78.30;101610.88;847987;23;1254;-79
2023/06/01 01:36:58;;;;;;;18.60;12.50;;;;;;;11.06;78.25;101616.09;843189;23;1310;-80
2023/06/01 01:37:22;;;;;;;19.20;12.80;;;;;;;11.13;78.19;101628.56;845560;23;963;-80
2023/06/01 01:37:53;;;;;;;20.55;12.55;;;;;;;11.10;78.09;101628.44;838507;23;1170;-79
2023/06/01 01:38:14;;;;;;;19.88;12.70;;;;;;;11.02;78.10;101619.41;843972;23;1473;-79
2023/06/01 01:38:36;;;;;;;20.30;13.57;;;;;;;11.01;78.33;101613.31;844173;23;1106;-79
2023/06/01 01:38:57;;;;;;;23.15;13.50;;;;;;;11.03;78.32;101615.94;839198;23;1486;-80
2023/06/01 01:39:17;;;;;;;22.55;13.50;;;;;;;10.99;78.13;101616.69;843517;23;1248;-79
2023/06/01 01:39:38;;;;;;;19.67;13.10;;;;;;;11.00;78.27;101621.06;845353;23;984;-80
2023/06/01 01:39:59;;;;;;;19.00;13.10;;;;;;;10.97;78.26;101616.59;839517;23;1116;-79
2023/06/01 01:40:21;;;;;;;20.20;13.45;;;;;;;11.01;78.21;101615.00;841526;23;1098;-79
2023/06/01 01:40:42;;;;;;;19.92;13.32;;;;;;;10.99;78.51;101616.69;838977;23;1442;-80
2023/06/01 01:41:03;;;;;;;19.55;13.05;;;;;;;11.04;78.27;101628.19;843653;23;1128;-79
2023/06/01 01:41:25;;;;;;;18.98;12.75;;;;;;;10.93;78.34;101614.69;844082;23;1209;-79
2023/06/01 01:41:47;;;;;;;20.67;12.93;;;;;;;11.00;78.26;101631.50;845133;23;956;-80
2023/06/01 01:42:08;;;;;;;20.77;13.15;;;;;;;10.97;78.43;101627.97;841288;23;924;-80
2023/06/01 01:42:29;;;;;;;22.17;13.45;;;;;;;10.93;78.49;101612.97;837148;23;728;-80
2023/06/01 01:42:51;;;;;;;20.02;13.75;;;;;;;10.96;78.45;101623.53;845004;23;941;-80
2023/06/01 01:43:12;;;;;;;20.65;13.70;;;;;;;10.93;78.54;101614.69;849493;23;1039;-79
2023/06/01 01:43:34;;;;;;;19.20;12.80;;;;;;;10.96;78.40;101618.31;845564;23;775;-79
2023/06/01 01:43:58;;;;;;;18.92;12.43;;;;;;;11.02;78.66;101635.06;835563;23;1122;-79
2023/06/01 01:44:20;;;;;;;18.00;13.00;;;;;;;10.94;78.53;101619.97;837384;23;981;-78
2023/06/01 01:44:40;;;;;;;20.42;14.02;;;;;;;10.99;78.61;101630.59;843759;23;1282;-79
2023/06/01 01:45:01;;;;;;;20.67;14.33;;;;;;;10.91;78.38;101616.34;843838;23;1291;-79
2023/06/01 01:45:22;;;;;;;22.13;14.55;;;;;;;10.91;78.67;101619.88;841417;23;865;-78
2023/06/01 01:45:44;;;;;;;21.88;13.82;;;;;;;10.95;78.54;101632.22;845429;23;996;-78
2023/06/01 01:46:25;;;;;;;20.30;13.05;;;;;;;10.90;78.44;101631.16;841193;23;1022;-79
2023/06/01 01:46:54;;;;;;;18.77;13.43;;;;;;;10.96;78.49;101635.72;843315;23;1593;-77
2023/06/01 01:47:34;;;;;;;21.02;13.70;;;;;;;10.95;78.63;101637.44;849679;23;1031;-79
2023/06/01 01:47:55;;;;;;;19.38;13.30;;;;;;;10.91;78.46;101632.94;842759;23;990;-79
2023/06/01 01:48:28;;;;;;;20.73;13.77;;;;;;;10.93;78.45;101632.97;839555;23;1403;-78
2023/06/01 01:49:07;;;;;;;21.48;14.43;;;;;;;10.91;78.48;101638.16;845091;23;1063;-79
2023/06/01 01:49:34;;;;;;;21.50;14.60;;;;;;;10.85;78.49;101619.63;843037;23;1148;-79
2023/06/01 01:50:03;;;;;;;21.10;13.93;;;;;;;10.87;78.63;101633.63;843604;23;1338;-79
2023/06/01 01:50:30;;;;;;;20.65;13.27;;;;;;;10.87;78.86;101631.00;835983;23;1085;-79
2023/06/01 01:50:55;;;;;;;22.35;13.55;;;;;;;10.89;78.69;101628.47;839583;23;1275;-79
2023/06/01 01:51:22;;;;;;;23.88;13.68;;;;;;;10.88;78.72;101627.56;838525;23;1289;-79
2023/06/01 01:52:02;;;;;;;25.75;14.10;;;;;;;10.91;78.54;101635.53;841227;23;985;-79
2023/06/01 01:52:31;;;;;;;24.08;13.60;;;;;;;10.90;78.52;101640.69;844078;23;1309;-78
2023/06/01 01:52:54;;;;;;;20.30;13.40;;;;;;;10.86;78.52;101625.75;845128;23;1052;-78